world map with WAP marked

WAP - Airport

This information may not be accurate or current and is not valid for navigation or flight planning. No warranty of fitness for any purpose is made or implied.

flag of Los Lagosflag of Chile

Donate via PayPal

Additional information is available on the NEW Great Circle Mapper

Location
City:  Alto Palena, Los Lagos, Chile
ICAO / IATA:SCAP / WAP

Details
Type:Airport (Aerodrome, Airfield)
Use:Public/Civil
Latitude:43°36'55"S (-43.615277)
Longitude:71°48'25"W (-71.806943)
Elevation:984 ft (300 m)
Runways:1
Longest:2874 × 59 ft (876 × 18 m)

Weather
METAR:SCAP  120700Z AUTO 18007KT 110V230 CAVOK 10/04 Q1024

Related Locations
Nearby:
Farthest:ZMKB: 12363 mi / 19896 km
Khanbogd [Khanbumbat Airport (Oyu Tolgoi Airport, Oyut Airport)], 053, MN

Find:

   beyond  
but within

Other Information
Maps:
Sources:

  


 


Great Circle Mapper   Great Circle Mapper
Great Circle Mapper FAQ   Great Circle Mapper FAQ
  Karl's Home Page
KLSē   KLSē Home
   GC on Facebook
Airlines of the World   Airlines of the World
Donate via PayPal


Copyright © 2004-2018, Karl L. Swartz. All rights reserved.
All trademarks mentioned herein belong to their respective owners.

Please see credits for attribution and copyright information.

Karl Swartz <karl@kls2.com>
  Powered by FreeBSD
Valid HTML 4.01!
Labeled with ICRA
hCard Microformat
Geo Microformat